sensor_id;sensor_type;location;lat;lon;timestamp;P1;durP1;ratioP1;P2;durP2;ratioP2
20531;SDS011;10424;52.102;8.084;2022-08-19T00:00:16;11.23;;;7.05;;
20531;SDS011;10424;52.102;8.084;2022-08-19T00:02:45;12.65;;;7.70;;
20531;SDS011;10424;52.102;8.084;2022-08-19T00:05:13;13.75;;;7.53;;
20531;SDS011;10424;52.102;8.084;2022-08-19T00:07:41;11.18;;;6.90;;
20531;SDS011;10424;52.102;8.084;2022-08-19T00:10:09;11.70;;;7.15;;
20531;SDS011;10424;52.102;8.084;2022-08-19T00:12:38;11.95;;;7.65;;
20531;SDS011;10424;52.102;8.084;2022-08-19T00:15:06;11.55;;;7.00;;
20531;SDS011;10424;52.102;8.084;2022-08-19T00:17:36;11.05;;;6.88;;
20531;SDS011;10424;52.102;8.084;2022-08-19T00:20:06;11.32;;;6.43;;
20531;SDS011;10424;52.102;8.084;2022-08-19T00:22:35;10.68;;;6.45;;
20531;SDS011;10424;52.102;8.084;2022-08-19T00:25:07;11.57;;;7.05;;
20531;SDS011;10424;52.102;8.084;2022-08-19T00:27:34;11.48;;;6.25;;
20531;SDS011;10424;52.102;8.084;2022-08-19T00:30:06;9.88;;;6.43;;
20531;SDS011;10424;52.102;8.084;2022-08-19T00:32:36;9.68;;;6.65;;
20531;SDS011;10424;52.102;8.084;2022-08-19T00:35:04;10.27;;;6.38;;
20531;SDS011;10424;52.102;8.084;2022-08-19T00:37:33;8.45;;;6.15;;
20531;SDS011;10424;52.102;8.084;2022-08-19T00:40:01;11.88;;;6.72;;
20531;SDS011;10424;52.102;8.084;2022-08-19T00:42:29;11.70;;;6.30;;
20531;SDS011;10424;52.102;8.084;2022-08-19T00:44:56;11.13;;;6.70;;
20531;SDS011;10424;52.102;8.084;2022-08-19T00:47:24;8.35;;;5.82;;
20531;SDS011;10424;52.102;8.084;2022-08-19T00:49:52;9.73;;;6.38;;
20531;SDS011;10424;52.102;8.084;2022-08-19T00:52:22;12.00;;;6.78;;
20531;SDS011;10424;52.102;8.084;2022-08-19T00:54:51;8.75;;;6.10;;
20531;SDS011;10424;52.102;8.084;2022-08-19T00:57:20;10.27;;;6.68;;
20531;SDS011;10424;52.102;8.084;2022-08-19T00:59:51;10.55;;;6.20;;
20531;SDS011;10424;52.102;8.084;2022-08-19T01:02:19;9.88;;;5.93;;
20531;SDS011;10424;52.102;8.084;2022-08-19T01:04:47;10.60;;;6.35;;
20531;SDS011;10424;52.102;8.084;2022-08-19T01:07:14;10.82;;;6.50;;
20531;SDS011;10424;52.102;8.084;2022-08-19T01:09:41;12.25;;;7.47;;
20531;SDS011;10424;52.102;8.084;2022-08-19T01:12:10;10.93;;;7.60;;
20531;SDS011;10424;52.102;8.084;2022-08-19T01:14:38;10.00;;;7.65;;
20531;SDS011;10424;52.102;8.084;2022-08-19T01:17:07;11.52;;;8.00;;
20531;SDS011;10424;52.102;8.084;2022-08-19T01:19:35;14.38;;;7.95;;
20531;SDS011;10424;52.102;8.084;2022-08-19T01:22:03;14.95;;;8.15;;
20531;SDS011;10424;52.102;8.084;2022-08-19T01:24:34;13.73;;;8.23;;
20531;SDS011;10424;52.102;8.084;2022-08-19T01:27:03;10.48;;;7.35;;
20531;SDS011;10424;52.102;8.084;2022-08-19T01:29:31;11.27;;;7.47;;
20531;SDS011;10424;52.102;8.084;2022-08-19T01:31:59;13.95;;;8.05;;
20531;SDS011;10424;52.102;8.084;2022-08-19T01:34:27;13.00;;;8.02;;
20531;SDS011;10424;52.102;8.084;2022-08-19T01:36:54;12.90;;;8.00;;
20531;SDS011;10424;52.102;8.084;2022-08-19T01:39:23;12.38;;;7.93;;
20531;SDS011;10424;52.102;8.084;2022-08-19T01:41:52;11.60;;;7.43;;
20531;SDS011;10424;52.102;8.084;2022-08-19T01:44:20;12.70;;;8.35;;
20531;SDS011;10424;52.102;8.084;2022-08-19T01:46:49;14.05;;;8.13;;
20531;SDS011;10424;52.102;8.084;2022-08-19T01:49:18;13.25;;;8.07;;
20531;SDS011;10424;52.102;8.084;2022-08-19T01:51:46;12.30;;;7.07;;
20531;SDS011;10424;52.102;8.084;2022-08-19T01:54:13;11.13;;;7.43;;
20531;SDS011;10424;52.102;8.084;2022-08-19T01:56:41;10.60;;;7.45;;
20531;SDS011;10424;52.102;8.084;2022-08-19T01:59:11;12.18;;;7.78;;
20531;SDS011;10424;52.102;8.084;2022-08-19T02:01:39;11.07;;;7.47;;
20531;SDS011;10424;52.102;8.084;2022-08-19T02:04:07;12.75;;;7.55;;
20531;SDS011;10424;52.102;8.084;2022-08-19T02:06:34;12.32;;;7.80;;
20531;SDS011;10424;52.102;8.084;2022-08-19T02:09:02;10.90;;;7.15;;
20531;SDS011;10424;52.102;8.084;2022-08-19T02:11:30;11.63;;;7.60;;
20531;SDS011;10424;52.102;8.084;2022-08-19T02:13:59;14.13;;;8.40;;
20531;SDS011;10424;52.102;8.084;2022-08-19T02:16:28;12.77;;;7.97;;
20531;SDS011;10424;52.102;8.084;2022-08-19T02:18:56;11.25;;;7.72;;
20531;SDS011;10424;52.102;8.084;2022-08-19T02:21:25;12.15;;;7.65;;
20531;SDS011;10424;52.102;8.084;2022-08-19T02:23:53;15.30;;;8.63;;
20531;SDS011;10424;52.102;8.084;2022-08-19T02:26:21;15.25;;;8.77;;
20531;SDS011;10424;52.102;8.084;2022-08-19T02:28:48;18.08;;;9.23;;
20531;SDS011;10424;52.102;8.084;2022-08-19T02:31:17;15.95;;;9.52;;
20531;SDS011;10424;52.102;8.084;2022-08-19T02:33:47;14.45;;;9.85;;
20531;SDS011;10424;52.102;8.084;2022-08-19T02:36:16;13.52;;;9.35;;
20531;SDS011;10424;52.102;8.084;2022-08-19T02:38:43;13.30;;;8.63;;
20531;SDS011;10424;52.102;8.084;2022-08-19T02:41:11;13.48;;;9.10;;
20531;SDS011;10424;52.102;8.084;2022-08-19T02:43:39;13.50;;;9.40;;
20531;SDS011;10424;52.102;8.084;2022-08-19T02:46:11;15.10;;;9.57;;
20531;SDS011;10424;52.102;8.084;2022-08-19T02:48:39;13.40;;;9.70;;
20531;SDS011;10424;52.102;8.084;2022-08-19T02:51:07;16.10;;;9.20;;
20531;SDS011;10424;52.102;8.084;2022-08-19T02:53:35;14.25;;;9.00;;
20531;SDS011;10424;52.102;8.084;2022-08-19T02:56:05;19.25;;;9.50;;
20531;SDS011;10424;52.102;8.084;2022-08-19T02:58:33;17.50;;;10.35;;
20531;SDS011;10424;52.102;8.084;2022-08-19T03:01:00;18.15;;;10.25;;
20531;SDS011;10424;52.102;8.084;2022-08-19T03:03:28;16.05;;;9.73;;
20531;SDS011;10424;52.102;8.084;2022-08-19T03:06:08;18.73;;;10.85;;
20531;SDS011;10424;52.102;8.084;2022-08-19T03:08:37;14.43;;;9.63;;
20531;SDS011;10424;52.102;8.084;2022-08-19T03:11:05;22.17;;;11.63;;
20531;SDS011;10424;52.102;8.084;2022-08-19T03:13:32;18.63;;;11.48;;
20531;SDS011;10424;52.102;8.084;2022-08-19T03:16:03;16.20;;;11.27;;
20531;SDS011;10424;52.102;8.084;2022-08-19T03:18:31;15.57;;;10.82;;
20531;SDS011;10424;52.102;8.084;2022-08-19T03:20:59;20.05;;;11.45;;
20531;SDS011;10424;52.102;8.084;2022-08-19T03:23:27;16.27;;;10.65;;
20531;SDS011;10424;52.102;8.084;2022-08-19T03:25:55;15.50;;;10.73;;
20531;SDS011;10424;52.102;8.084;2022-08-19T03:28:22;17.00;;;10.85;;
20531;SDS011;10424;52.102;8.084;2022-08-19T03:30:56;15.93;;;10.70;;
20531;SDS011;10424;52.102;8.084;2022-08-19T03:33:24;15.88;;;11.00;;
20531;SDS011;10424;52.102;8.084;2022-08-19T03:36:05;14.68;;;10.05;;
20531;SDS011;10424;52.102;8.084;2022-08-19T03:38:35;15.50;;;10.23;;
20531;SDS011;10424;52.102;8.084;2022-08-19T03:41:04;16.17;;;10.40;;
20531;SDS011;10424;52.102;8.084;2022-08-19T03:43:33;15.10;;;9.55;;
20531;SDS011;10424;52.102;8.084;2022-08-19T03:46:01;16.30;;;9.90;;
20531;SDS011;10424;52.102;8.084;2022-08-19T03:48:29;17.90;;;10.23;;
20531;SDS011;10424;52.102;8.084;2022-08-19T03:50:57;17.58;;;10.43;;
20531;SDS011;10424;52.102;8.084;2022-08-19T03:53:25;17.17;;;10.48;;
20531;SDS011;10424;52.102;8.084;2022-08-19T03:55:54;15.88;;;10.60;;
20531;SDS011;10424;52.102;8.084;2022-08-19T03:58:23;16.73;;;10.93;;
20531;SDS011;10424;52.102;8.084;2022-08-19T04:00:50;21.42;;;10.93;;
20531;SDS011;10424;52.102;8.084;2022-08-19T04:03:18;18.08;;;10.63;;
20531;SDS011;10424;52.102;8.084;2022-08-19T04:05:45;16.88;;;10.75;;
20531;SDS011;10424;52.102;8.084;2022-08-19T04:08:13;17.67;;;10.80;;
20531;SDS011;10424;52.102;8.084;2022-08-19T04:10:45;17.23;;;10.77;;
20531;SDS011;10424;52.102;8.084;2022-08-19T04:13:14;17.92;;;10.95;;
20531;SDS011;10424;52.102;8.084;2022-08-19T04:15:41;19.63;;;12.10;;
20531;SDS011;10424;52.102;8.084;2022-08-19T04:18:11;18.92;;;12.15;;
20531;SDS011;10424;52.102;8.084;2022-08-19T04:20:39;19.13;;;11.95;;
20531;SDS011;10424;52.102;8.084;2022-08-19T04:23:07;16.92;;;11.45;;
20531;SDS011;10424;52.102;8.084;2022-08-19T04:25:35;19.73;;;12.23;;
20531;SDS011;10424;52.102;8.084;2022-08-19T04:28:03;20.40;;;12.80;;
20531;SDS011;10424;52.102;8.084;2022-08-19T04:30:36;21.05;;;12.82;;
20531;SDS011;10424;52.102;8.084;2022-08-19T04:33:04;19.27;;;11.85;;
20531;SDS011;10424;52.102;8.084;2022-08-19T04:35:34;22.60;;;12.82;;
20531;SDS011;10424;52.102;8.084;2022-08-19T04:38:02;17.50;;;12.13;;
20531;SDS011;10424;52.102;8.084;2022-08-19T04:40:29;20.80;;;12.30;;
20531;SDS011;10424;52.102;8.084;2022-08-19T04:43:14;18.48;;;12.43;;
20531;SDS011;10424;52.102;8.084;2022-08-19T04:45:43;20.50;;;11.85;;
20531;SDS011;10424;52.102;8.084;2022-08-19T04:48:11;20.67;;;12.38;;
20531;SDS011;10424;52.102;8.084;2022-08-19T04:50:39;18.48;;;11.95;;
20531;SDS011;10424;52.102;8.084;2022-08-19T04:53:07;19.63;;;12.07;;
20531;SDS011;10424;52.102;8.084;2022-08-19T04:55:38;21.75;;;12.00;;
20531;SDS011;10424;52.102;8.084;2022-08-19T04:58:05;21.02;;;12.00;;
20531;SDS011;10424;52.102;8.084;2022-08-19T05:00:32;19.58;;;11.48;;
20531;SDS011;10424;52.102;8.084;2022-08-19T05:03:01;19.48;;;12.15;;
20531;SDS011;10424;52.102;8.084;2022-08-19T05:05:28;17.73;;;11.95;;
20531;SDS011;10424;52.102;8.084;2022-08-19T05:07:56;18.52;;;11.98;;
20531;SDS011;10424;52.102;8.084;2022-08-19T05:10:24;21.17;;;12.55;;
20531;SDS011;10424;52.102;8.084;2022-08-19T05:12:51;19.02;;;11.77;;
20531;SDS011;10424;52.102;8.084;2022-08-19T05:15:19;17.10;;;11.73;;
20531;SDS011;10424;52.102;8.084;2022-08-19T05:17:46;19.27;;;11.52;;
20531;SDS011;10424;52.102;8.084;2022-08-19T05:20:29;20.60;;;11.85;;
20531;SDS011;10424;52.102;8.084;2022-08-19T05:23:13;22.48;;;11.73;;
20531;SDS011;10424;52.102;8.084;2022-08-19T05:25:42;24.27;;;12.45;;
20531;SDS011;10424;52.102;8.084;2022-08-19T05:28:09;25.30;;;12.15;;
20531;SDS011;10424;52.102;8.084;2022-08-19T05:30:37;26.55;;;12.20;;
20531;SDS011;10424;52.102;8.084;2022-08-19T05:33:05;26.13;;;12.30;;
20531;SDS011;10424;52.102;8.084;2022-08-19T05:35:37;24.23;;;11.82;;
20531;SDS011;10424;52.102;8.084;2022-08-19T05:38:05;28.30;;;12.20;;
20531;SDS011;10424;52.102;8.084;2022-08-19T05:40:33;21.10;;;11.98;;
20531;SDS011;10424;52.102;8.084;2022-08-19T05:43:02;24.35;;;12.52;;
20531;SDS011;10424;52.102;8.084;2022-08-19T05:45:29;22.63;;;12.80;;
20531;SDS011;10424;52.102;8.084;2022-08-19T05:47:57;22.88;;;13.13;;
20531;SDS011;10424;52.102;8.084;2022-08-19T05:50:25;21.10;;;12.65;;
20531;SDS011;10424;52.102;8.084;2022-08-19T05:52:53;23.17;;;13.13;;
20531;SDS011;10424;52.102;8.084;2022-08-19T05:55:21;18.17;;;12.55;;
20531;SDS011;10424;52.102;8.084;2022-08-19T05:57:48;18.25;;;12.32;;
20531;SDS011;10424;52.102;8.084;2022-08-19T06:00:16;23.35;;;13.20;;
20531;SDS011;10424;52.102;8.084;2022-08-19T06:02:43;22.75;;;12.50;;
20531;SDS011;10424;52.102;8.084;2022-08-19T06:05:11;18.50;;;12.50;;
20531;SDS011;10424;52.102;8.084;2022-08-19T06:07:38;17.08;;;11.98;;
20531;SDS011;10424;52.102;8.084;2022-08-19T06:10:09;20.10;;;11.98;;
20531;SDS011;10424;52.102;8.084;2022-08-19T06:12:36;19.65;;;12.00;;
20531;SDS011;10424;52.102;8.084;2022-08-19T06:15:05;20.00;;;12.38;;
20531;SDS011;10424;52.102;8.084;2022-08-19T06:17:33;16.10;;;11.18;;
20531;SDS011;10424;52.102;8.084;2022-08-19T06:20:00;17.50;;;11.38;;
20531;SDS011;10424;52.102;8.084;2022-08-19T06:22:28;20.95;;;12.00;;
20531;SDS011;10424;52.102;8.084;2022-08-19T06:24:55;18.52;;;12.32;;
20531;SDS011;10424;52.102;8.084;2022-08-19T06:27:24;16.80;;;11.13;;
20531;SDS011;10424;52.102;8.084;2022-08-19T06:29:51;17.63;;;11.70;;
20531;SDS011;10424;52.102;8.084;2022-08-19T06:32:19;18.02;;;11.75;;
20531;SDS011;10424;52.102;8.084;2022-08-19T06:34:46;18.35;;;10.98;;
20531;SDS011;10424;52.102;8.084;2022-08-19T06:37:14;19.33;;;11.82;;
20531;SDS011;10424;52.102;8.084;2022-08-19T06:39:43;16.80;;;10.82;;
20531;SDS011;10424;52.102;8.084;2022-08-19T06:42:11;16.98;;;10.68;;
20531;SDS011;10424;52.102;8.084;2022-08-19T06:44:43;13.48;;;9.25;;
20531;SDS011;10424;52.102;8.084;2022-08-19T06:47:12;15.10;;;9.43;;
20531;SDS011;10424;52.102;8.084;2022-08-19T06:49:39;9.95;;;8.23;;
20531;SDS011;10424;52.102;8.084;2022-08-19T06:52:07;13.70;;;9.10;;
20531;SDS011;10424;52.102;8.084;2022-08-19T06:54:36;15.10;;;7.82;;
20531;SDS011;10424;52.102;8.084;2022-08-19T06:57:04;9.73;;;7.47;;
20531;SDS011;10424;52.102;8.084;2022-08-19T06:59:32;10.95;;;7.65;;
20531;SDS011;10424;52.102;8.084;2022-08-19T07:02:02;12.88;;;8.02;;
20531;SDS011;10424;52.102;8.084;2022-08-19T07:04:32;11.70;;;7.57;;
20531;SDS011;10424;52.102;8.084;2022-08-19T07:07:00;10.40;;;7.90;;
20531;SDS011;10424;52.102;8.084;2022-08-19T07:09:27;9.85;;;7.30;;
20531;SDS011;10424;52.102;8.084;2022-08-19T07:11:55;9.50;;;7.03;;
20531;SDS011;10424;52.102;8.084;2022-08-19T07:14:24;13.38;;;7.03;;
20531;SDS011;10424;52.102;8.084;2022-08-19T07:16:52;10.50;;;6.95;;
20531;SDS011;10424;52.102;8.084;2022-08-19T07:19:22;13.13;;;7.00;;
20531;SDS011;10424;52.102;8.084;2022-08-19T07:21:51;9.68;;;6.30;;
20531;SDS011;10424;52.102;8.084;2022-08-19T07:24:19;8.55;;;6.10;;
20531;SDS011;10424;52.102;8.084;2022-08-19T07:26:49;9.52;;;6.45;;
20531;SDS011;10424;52.102;8.084;2022-08-19T07:29:17;8.02;;;5.55;;
20531;SDS011;10424;52.102;8.084;2022-08-19T07:31:47;8.07;;;6.30;;
20531;SDS011;10424;52.102;8.084;2022-08-19T07:34:15;8.32;;;6.20;;
20531;SDS011;10424;52.102;8.084;2022-08-19T07:36:44;9.27;;;6.03;;
20531;SDS011;10424;52.102;8.084;2022-08-19T07:39:13;7.35;;;5.78;;
20531;SDS011;10424;52.102;8.084;2022-08-19T07:41:41;9.57;;;5.70;;
20531;SDS011;10424;52.102;8.084;2022-08-19T07:44:09;8.65;;;5.70;;
20531;SDS011;10424;52.102;8.084;2022-08-19T07:46:38;8.15;;;5.88;;
20531;SDS011;10424;52.102;8.084;2022-08-19T07:49:06;8.18;;;5.93;;
20531;SDS011;10424;52.102;8.084;2022-08-19T07:51:33;11.98;;;5.75;;
20531;SDS011;10424;52.102;8.084;2022-08-19T07:54:03;8.32;;;5.88;;
20531;SDS011;10424;52.102;8.084;2022-08-19T07:56:30;9.13;;;5.68;;
20531;SDS011;10424;52.102;8.084;2022-08-19T07:58:57;9.27;;;5.85;;
20531;SDS011;10424;52.102;8.084;2022-08-19T08:01:25;9.93;;;6.30;;
20531;SDS011;10424;52.102;8.084;2022-08-19T08:03:54;9.85;;;6.18;;
20531;SDS011;10424;52.102;8.084;2022-08-19T08:06:39;8.68;;;6.10;;
20531;SDS011;10424;52.102;8.084;2022-08-19T08:09:33;13.52;;;6.53;;
20531;SDS011;10424;52.102;8.084;2022-08-19T08:12:02;9.63;;;5.78;;
20531;SDS011;10424;52.102;8.084;2022-08-19T08:14:32;9.50;;;5.53;;
20531;SDS011;10424;52.102;8.084;2022-08-19T08:17:00;8.60;;;5.70;;
20531;SDS011;10424;52.102;8.084;2022-08-19T08:19:28;8.35;;;5.63;;
20531;SDS011;10424;52.102;8.084;2022-08-19T08:21:56;7.68;;;6.05;;
20531;SDS011;10424;52.102;8.084;2022-08-19T08:24:23;7.80;;;6.22;;
20531;SDS011;10424;52.102;8.084;2022-08-19T08:26:52;8.57;;;6.45;;
20531;SDS011;10424;52.102;8.084;2022-08-19T08:29:19;10.10;;;6.22;;
20531;SDS011;10424;52.102;8.084;2022-08-19T08:31:47;7.47;;;5.85;;
20531;SDS011;10424;52.102;8.084;2022-08-19T08:34:14;9.27;;;6.68;;
20531;SDS011;10424;52.102;8.084;2022-08-19T08:36:43;8.45;;;5.95;;
20531;SDS011;10424;52.102;8.084;2022-08-19T08:39:11;8.85;;;6.03;;
20531;SDS011;10424;52.102;8.084;2022-08-19T08:41:40;8.43;;;6.25;;
20531;SDS011;10424;52.102;8.084;2022-08-19T08:44:12;9.73;;;5.90;;
20531;SDS011;10424;52.102;8.084;2022-08-19T08:46:42;8.48;;;5.50;;
20531;SDS011;10424;52.102;8.084;2022-08-19T08:49:13;9.27;;;5.60;;
20531;SDS011;10424;52.102;8.084;2022-08-19T08:51:46;7.90;;;5.40;;
20531;SDS011;10424;52.102;8.084;2022-08-19T08:54:15;7.13;;;5.22;;
20531;SDS011;10424;52.102;8.084;2022-08-19T08:56:44;9.02;;;5.15;;
20531;SDS011;10424;52.102;8.084;2022-08-19T08:59:16;7.38;;;5.20;;
20531;SDS011;10424;52.102;8.084;2022-08-19T09:01:46;9.57;;;5.70;;
20531;SDS011;10424;52.102;8.084;2022-08-19T09:04:13;8.85;;;5.10;;
20531;SDS011;10424;52.102;8.084;2022-08-19T09:06:43;8.48;;;5.18;;
20531;SDS011;10424;52.102;8.084;2022-08-19T09:09:17;8.23;;;5.10;;
20531;SDS011;10424;52.102;8.084;2022-08-19T09:11:50;8.85;;;4.85;;
20531;SDS011;10424;52.102;8.084;2022-08-19T09:14:27;7.65;;;5.63;;
20531;SDS011;10424;52.102;8.084;2022-08-19T09:16:56;7.07;;;5.50;;
20531;SDS011;10424;52.102;8.084;2022-08-19T09:19:24;8.48;;;5.10;;
20531;SDS011;10424;52.102;8.084;2022-08-19T09:21:52;7.22;;;4.97;;
20531;SDS011;10424;52.102;8.084;2022-08-19T09:24:19;8.85;;;5.30;;
20531;SDS011;10424;52.102;8.084;2022-08-19T09:26:47;6.00;;;5.30;;
20531;SDS011;10424;52.102;8.084;2022-08-19T09:29:16;7.57;;;5.47;;
20531;SDS011;10424;52.102;8.084;2022-08-19T09:31:48;9.25;;;4.97;;
20531;SDS011;10424;52.102;8.084;2022-08-19T09:34:17;9.85;;;5.13;;
20531;SDS011;10424;52.102;8.084;2022-08-19T09:36:45;6.30;;;3.97;;
20531;SDS011;10424;52.102;8.084;2022-08-19T09:39:14;4.60;;;4.18;;
20531;SDS011;10424;52.102;8.084;2022-08-19T09:41:41;4.63;;;3.30;;
20531;SDS011;10424;52.102;8.084;2022-08-19T09:44:09;6.05;;;4.20;;
20531;SDS011;10424;52.102;8.084;2022-08-19T09:46:37;5.75;;;3.40;;
20531;SDS011;10424;52.102;8.084;2022-08-19T09:49:06;5.97;;;3.45;;
20531;SDS011;10424;52.102;8.084;2022-08-19T09:51:33;4.22;;;3.83;;
20531;SDS011;10424;52.102;8.084;2022-08-19T09:54:02;4.45;;;3.78;;
20531;SDS011;10424;52.102;8.084;2022-08-19T09:56:29;4.55;;;3.30;;
20531;SDS011;10424;52.102;8.084;2022-08-19T09:58:57;5.60;;;3.35;;
20531;SDS011;10424;52.102;8.084;2022-08-19T10:01:25;4.20;;;3.30;;
20531;SDS011;10424;52.102;8.084;2022-08-19T10:03:54;4.50;;;3.58;;
20531;SDS011;10424;52.102;8.084;2022-08-19T10:06:24;5.25;;;4.03;;
20531;SDS011;10424;52.102;8.084;2022-08-19T10:08:52;4.20;;;3.13;;
20531;SDS011;10424;52.102;8.084;2022-08-19T10:11:19;4.28;;;3.53;;
20531;SDS011;10424;52.102;8.084;2022-08-19T10:13:47;4.30;;;3.60;;
20531;SDS011;10424;52.102;8.084;2022-08-19T10:16:16;4.93;;;2.92;;
20531;SDS011;10424;52.102;8.084;2022-08-19T10:18:45;4.80;;;3.00;;
20531;SDS011;10424;52.102;8.084;2022-08-19T10:21:13;5.65;;;3.20;;
20531;SDS011;10424;52.102;8.084;2022-08-19T10:23:42;4.68;;;3.47;;
20531;SDS011;10424;52.102;8.084;2022-08-19T10:26:11;5.35;;;3.42;;
20531;SDS011;10424;52.102;8.084;2022-08-19T10:28:39;4.53;;;3.75;;
20531;SDS011;10424;52.102;8.084;2022-08-19T10:31:06;6.63;;;4.25;;
20531;SDS011;10424;52.102;8.084;2022-08-19T10:33:34;4.25;;;3.28;;
20531;SDS011;10424;52.102;8.084;2022-08-19T10:36:03;4.55;;;3.05;;
20531;SDS011;10424;52.102;8.084;2022-08-19T10:38:31;4.10;;;2.90;;
20531;SDS011;10424;52.102;8.084;2022-08-19T10:41:07;4.03;;;2.65;;
20531;SDS011;10424;52.102;8.084;2022-08-19T10:43:34;4.90;;;2.88;;
20531;SDS011;10424;52.102;8.084;2022-08-19T10:46:03;5.13;;;3.47;;
20531;SDS011;10424;52.102;8.084;2022-08-19T10:48:31;3.95;;;3.30;;
20531;SDS011;10424;52.102;8.084;2022-08-19T10:50:59;3.55;;;2.90;;
20531;SDS011;10424;52.102;8.084;2022-08-19T10:53:44;3.17;;;1.90;;
20531;SDS011;10424;52.102;8.084;2022-08-19T10:56:12;2.42;;;2.03;;
20531;SDS011;10424;52.102;8.084;2022-08-19T10:58:58;2.90;;;2.00;;
20531;SDS011;10424;52.102;8.084;2022-08-19T11:01:25;2.97;;;2.00;;
20531;SDS011;10424;52.102;8.084;2022-08-19T11:03:54;1.98;;;1.67;;
20531;SDS011;10424;52.102;8.084;2022-08-19T11:06:23;1.83;;;1.33;;
20531;SDS011;10424;52.102;8.084;2022-08-19T11:08:51;3.15;;;1.70;;
20531;SDS011;10424;52.102;8.084;2022-08-19T11:11:19;2.53;;;1.80;;
20531;SDS011;10424;52.102;8.084;2022-08-19T11:13:47;3.00;;;1.58;;
20531;SDS011;10424;52.102;8.084;2022-08-19T11:16:17;5.40;;;2.13;;
20531;SDS011;10424;52.102;8.084;2022-08-19T11:18:45;3.50;;;2.15;;
20531;SDS011;10424;52.102;8.084;2022-08-19T11:21:14;3.03;;;2.00;;
20531;SDS011;10424;52.102;8.084;2022-08-19T11:23:44;4.72;;;2.53;;
20531;SDS011;10424;52.102;8.084;2022-08-19T11:26:13;3.63;;;2.08;;
20531;SDS011;10424;52.102;8.084;2022-08-19T11:28:42;2.83;;;1.80;;
20531;SDS011;10424;52.102;8.084;2022-08-19T11:31:10;3.80;;;2.10;;
20531;SDS011;10424;52.102;8.084;2022-08-19T11:33:38;2.65;;;2.00;;
20531;SDS011;10424;52.102;8.084;2022-08-19T11:36:05;2.25;;;2.05;;
20531;SDS011;10424;52.102;8.084;2022-08-19T11:38:33;4.20;;;2.10;;
20531;SDS011;10424;52.102;8.084;2022-08-19T11:41:02;2.60;;;1.90;;
20531;SDS011;10424;52.102;8.084;2022-08-19T11:43:30;7.05;;;3.63;;
20531;SDS011;10424;52.102;8.084;2022-08-19T11:45:59;4.90;;;2.40;;
20531;SDS011;10424;52.102;8.084;2022-08-19T11:48:26;3.63;;;2.20;;
20531;SDS011;10424;52.102;8.084;2022-08-19T11:50:53;3.83;;;2.10;;
20531;SDS011;10424;52.102;8.084;2022-08-19T11:53:22;3.83;;;2.13;;
20531;SDS011;10424;52.102;8.084;2022-08-19T11:55:49;4.10;;;2.00;;
20531;SDS011;10424;52.102;8.084;2022-08-19T11:58:17;2.95;;;1.98;;
20531;SDS011;10424;52.102;8.084;2022-08-19T12:00:44;3.05;;;2.05;;
20531;SDS011;10424;52.102;8.084;2022-08-19T12:03:13;2.50;;;2.30;;
20531;SDS011;10424;52.102;8.084;2022-08-19T12:05:41;5.90;;;2.20;;
20531;SDS011;10424;52.102;8.084;2022-08-19T12:08:08;2.30;;;2.10;;
20531;SDS011;10424;52.102;8.084;2022-08-19T12:10:37;3.25;;;2.20;;
20531;SDS011;10424;52.102;8.084;2022-08-19T12:13:05;2.45;;;2.20;;
20531;SDS011;10424;52.102;8.084;2022-08-19T12:15:34;4.70;;;2.47;;
20531;SDS011;10424;52.102;8.084;2022-08-19T12:18:02;3.20;;;2.40;;
20531;SDS011;10424;52.102;8.084;2022-08-19T12:20:33;4.93;;;2.67;;
20531;SDS011;10424;52.102;8.084;2022-08-19T12:23:00;4.50;;;2.63;;
20531;SDS011;10424;52.102;8.084;2022-08-19T12:25:28;4.55;;;2.50;;
20531;SDS011;10424;52.102;8.084;2022-08-19T12:27:56;4.40;;;2.53;;
20531;SDS011;10424;52.102;8.084;2022-08-19T12:30:23;3.08;;;2.70;;
20531;SDS011;10424;52.102;8.084;2022-08-19T12:32:50;5.03;;;2.80;;
20531;SDS011;10424;52.102;8.084;2022-08-19T12:35:18;3.47;;;2.80;;
20531;SDS011;10424;52.102;8.084;2022-08-19T12:37:47;3.63;;;2.95;;
20531;SDS011;10424;52.102;8.084;2022-08-19T12:40:15;4.07;;;2.78;;
20531;SDS011;10424;52.102;8.084;2022-08-19T12:42:44;3.25;;;2.70;;
20531;SDS011;10424;52.102;8.084;2022-08-19T12:45:12;2.83;;;2.55;;
20531;SDS011;10424;52.102;8.084;2022-08-19T12:47:40;4.57;;;2.80;;
20531;SDS011;10424;52.102;8.084;2022-08-19T12:50:08;3.72;;;3.03;;
20531;SDS011;10424;52.102;8.084;2022-08-19T12:52:36;3.65;;;2.80;;
20531;SDS011;10424;52.102;8.084;2022-08-19T12:55:06;4.15;;;3.00;;
20531;SDS011;10424;52.102;8.084;2022-08-19T12:57:33;4.28;;;3.33;;
20531;SDS011;10424;52.102;8.084;2022-08-19T13:00:03;4.20;;;3.30;;
20531;SDS011;10424;52.102;8.084;2022-08-19T13:02:33;3.75;;;3.10;;
20531;SDS011;10424;52.102;8.084;2022-08-19T13:05:01;4.15;;;3.20;;
20531;SDS011;10424;52.102;8.084;2022-08-19T13:07:28;3.47;;;2.92;;
20531;SDS011;10424;52.102;8.084;2022-08-19T13:09:55;3.20;;;3.00;;
20531;SDS011;10424;52.102;8.084;2022-08-19T13:12:24;4.78;;;3.35;;
20531;SDS011;10424;52.102;8.084;2022-08-19T13:14:52;4.97;;;3.13;;
20531;SDS011;10424;52.102;8.084;2022-08-19T13:17:20;4.18;;;3.38;;
20531;SDS011;10424;52.102;8.084;2022-08-19T13:19:48;4.43;;;3.40;;
20531;SDS011;10424;52.102;8.084;2022-08-19T13:22:15;3.65;;;3.13;;
20531;SDS011;10424;52.102;8.084;2022-08-19T13:24:43;3.92;;;3.20;;
20531;SDS011;10424;52.102;8.084;2022-08-19T13:27:11;4.15;;;3.60;;
20531;SDS011;10424;52.102;8.084;2022-08-19T13:29:40;5.28;;;3.35;;
20531;SDS011;10424;52.102;8.084;2022-08-19T13:32:25;3.47;;;2.95;;
20531;SDS011;10424;52.102;8.084;2022-08-19T13:35:10;4.85;;;2.90;;
20531;SDS011;10424;52.102;8.084;2022-08-19T13:37:37;3.78;;;3.28;;
20531;SDS011;10424;52.102;8.084;2022-08-19T13:40:09;4.78;;;3.17;;
20531;SDS011;10424;52.102;8.084;2022-08-19T13:42:37;3.50;;;3.20;;
20531;SDS011;10424;52.102;8.084;2022-08-19T13:45:07;4.43;;;3.28;;
20531;SDS011;10424;52.102;8.084;2022-08-19T13:47:34;4.05;;;3.30;;
20531;SDS011;10424;52.102;8.084;2022-08-19T13:50:08;3.47;;;3.10;;
20531;SDS011;10424;52.102;8.084;2022-08-19T13:52:36;4.40;;;3.00;;
20531;SDS011;10424;52.102;8.084;2022-08-19T13:55:04;3.60;;;2.90;;
20531;SDS011;10424;52.102;8.084;2022-08-19T13:57:31;3.92;;;3.00;;
20531;SDS011;10424;52.102;8.084;2022-08-19T13:59:59;5.82;;;3.30;;
20531;SDS011;10424;52.102;8.084;2022-08-19T14:02:28;5.57;;;3.03;;
20531;SDS011;10424;52.102;8.084;2022-08-19T14:04:55;3.40;;;3.10;;
20531;SDS011;10424;52.102;8.084;2022-08-19T14:07:22;4.85;;;2.90;;
20531;SDS011;10424;52.102;8.084;2022-08-19T14:09:50;3.30;;;3.00;;
20531;SDS011;10424;52.102;8.084;2022-08-19T14:12:18;4.25;;;3.17;;
20531;SDS011;10424;52.102;8.084;2022-08-19T14:14:46;4.07;;;3.13;;
20531;SDS011;10424;52.102;8.084;2022-08-19T14:17:13;5.43;;;3.05;;
20531;SDS011;10424;52.102;8.084;2022-08-19T14:19:42;3.78;;;3.38;;
20531;SDS011;10424;52.102;8.084;2022-08-19T14:22:09;5.72;;;3.22;;
20531;SDS011;10424;52.102;8.084;2022-08-19T14:24:37;4.97;;;3.42;;
20531;SDS011;10424;52.102;8.084;2022-08-19T14:27:05;5.50;;;3.40;;
20531;SDS011;10424;52.102;8.084;2022-08-19T14:29:33;3.83;;;3.42;;
20531;SDS011;10424;52.102;8.084;2022-08-19T14:32:01;5.20;;;3.47;;
20531;SDS011;10424;52.102;8.084;2022-08-19T14:34:28;5.68;;;3.38;;
20531;SDS011;10424;52.102;8.084;2022-08-19T14:36:57;3.88;;;3.30;;
20531;SDS011;10424;52.102;8.084;2022-08-19T14:39:25;6.25;;;3.47;;
20531;SDS011;10424;52.102;8.084;2022-08-19T14:41:52;4.50;;;2.97;;
20531;SDS011;10424;52.102;8.084;2022-08-19T14:44:21;4.95;;;3.30;;
20531;SDS011;10424;52.102;8.084;2022-08-19T14:46:48;3.65;;;3.20;;